KROW/ROW METAR and TAF weather

Enter ICAO airport designator
Station Type Date Time Source
KROW METAR 2020/02/20 16:59 UTC NOAA

KROW 201659Z 01014KT 1 1/2SM -FZRA BR BKN005 OVC011 00/M02 A3060 RMK AO2 SFC VIS 2 1/2 FZRAB53SNE53 CIG 004V009 P0000 I1000 T00001017


Station Type Date Time Source
KROW Decoded METAR 2020/02/20 16:59 UTC NOAA

ROSWELL INDUSTRIAL AIR CENTR, NM, United States (KROW) 33-18N 104-32W 1112M
Feb 20, 2020 - 11:59 AM EST / 2020.02.20 1659 UTC
Wind: from the N (010 degrees) at 16 MPH (14 KT):0
Visibility: 1 1/2 mile(s):0
Sky conditions: overcast
Weather: light freezing rain; mist
Precipitation last hour: A trace
Temperature: 32.0 F (0.0 C)
Windchill: 21 F (-6 C):1
Dew Point: 28.9 F (-1.7 C)
Relative Humidity: 88%
Pressure (altimeter): 30.6 in. Hg (1036 hPa)
ob: KROW 201659Z 01014KT 1 1/2SM -FZRA BR BKN005 OVC011 00/M02 A3060 RMK AO2 SFC VIS 2 1/2 FZRAB53SNE53 CIG 004V009 P0000 I1000 T00001017
cycle: 17

Station Type Date Time Source
KROW TAF 2020/02/20 12:22 UTC NOAA

TAF KROW 201120Z 2012/2112 01013KT P6SM OVC025
TEMPO 2012/2016 4SM -RASN BR OVC009
FM202100 05006KT P6SM OVC035
FM210200 15004KT P6SM BKN040

Example: see airport list